^^
Station Historical Data
Daily Summary for February 15, 2017 Units:  Both    English   Metric
« Previous Day
Next Day »
Daily Weekly Monthly Yearly Custom
  High: Low: Average:
Temperature: 86.4 °F /  30.2 °C 64.6 °F /  18.1 °C 73.7 °F /  23.2 °C
Dew Point: 61.9 °F /  16.6 °C 45.9 °F /  7.7 °C 56.2 °F /  13.4 °C
Humidity: 79% 29% 57%
Wind Speed: 8.1mph /  13km/h - 1.1mph /  1.8km/h
Wind Gust: 12.0mph /  19.3km/h - -
Wind- - SE
Pressure: 29.77 in /  1008 hPa 29.63 in /  1003.3 hPa -
Precipitation: 0.00 in /  0 mm    
Historical Graphs
 
 
Tabular Data for February 15, 2017
Time Temperature Dew Point Pressure Wind Wind Speed Wind Gust Humidity Rainfall Rate (Hourly) solar Conditions
00:05 69.6 °F /  20.9 °C 59.7 °F /  15.4 °C 29.70in /  1005.6hPa Calm     71% 0.00in /  0mm 0.0 W/m2
00:11 69.6 °F /  20.9 °C 59.7 °F /  15.4 °C 29.70in /  1005.6hPa Calm     71% 0.00in /  0mm 0.0 W/m2
00:17 69.6 °F /  20.9 °C 59.7 °F /  15.4 °C 29.70in /  1005.6hPa Calm     71% 0.00in /  0mm 0.0 W/m2
00:23 69.4 °F /  20.8 °C 60.1 °F /  15.6 °C 29.70in /  1005.6hPa Calm     72% 0.00in /  0mm 0.0 W/m2
00:29 69.3 °F /  20.7 °C 59.9 °F /  15.5 °C 29.70in /  1005.6hPa Calm     72% 0.00in /  0mm 0.0 W/m2
00:35 69.1 °F /  20.6 °C 60.1 °F /  15.6 °C 29.69in /  1005.3hPa Calm     73% 0.00in /  0mm 0.0 W/m2
00:41 68.9 °F /  20.5 °C 60.3 °F /  15.7 °C 29.69in /  1005.3hPa Calm     74% 0.00in /  0mm 0.0 W/m2
00:48 68.5 °F /  20.3 °C 60.3 °F /  15.7 °C 29.69in /  1005.3hPa Calm   1.0mph /  1.6km/h 75% 0.00in /  0mm 0.0 W/m2
00:54 68.2 °F /  20.1 °C 59.9 °F /  15.5 °C 29.69in /  1005.3hPa Calm   1.0mph /  1.6km/h 75% 0.00in /  0mm 0.0 W/m2
01:00 68.0 °F /  20 °C 60.1 °F /  15.6 °C 29.69in /  1005.3hPa ENE 0.9mph /  1.4km/h 1.0mph /  1.6km/h 76% 0.00in /  0mm 0.0 W/m2
01:06 67.8 °F /  19.9 °C 60.3 °F /  15.7 °C 29.69in /  1005.3hPa Calm     77% 0.00in /  0mm 0.0 W/m2
01:12 67.6 °F /  19.8 °C 60.3 °F /  15.7 °C 29.69in /  1005.3hPa Calm     77% 0.00in /  0mm 0.0 W/m2
01:18 67.5 °F /  19.7 °C 60.4 °F /  15.8 °C 29.68in /  1005hPa Calm   1.0mph /  1.6km/h 78% 0.00in /  0mm 0.0 W/m2
01:24 67.3 °F /  19.6 °C 60.6 °F /  15.9 °C 29.68in /  1005hPa East 0.9mph /  1.4km/h 2.0mph /  3.2km/h 79% 0.00in /  0mm 0.0 W/m2
01:30 67.1 °F /  19.5 °C 60.4 °F /  15.8 °C 29.67in /  1004.6hPa Calm   1.0mph /  1.6km/h 79% 0.00in /  0mm 0.0 W/m2
01:37 66.9 °F /  19.4 °C 60.3 °F /  15.7 °C 29.67in /  1004.6hPa Calm   2.0mph /  3.2km/h 79% 0.00in /  0mm 0.0 W/m2
01:43 66.7 °F /  19.3 °C 59.7 °F /  15.4 °C 29.67in /  1004.6hPa Calm     78% 0.00in /  0mm 0.0 W/m2
01:49 66.7 °F /  19.3 °C 58.6 °F /  14.8 °C 29.67in /  1004.6hPa Calm     75% 0.00in /  0mm 0.0 W/m2
01:55 66.7 °F /  19.3 °C 59.0 °F /  15 °C 29.67in /  1004.6hPa Calm     76% 0.00in /  0mm 0.0 W/m2
02:01 66.7 °F /  19.3 °C 59.4 °F /  15.2 °C 29.67in /  1004.6hPa Calm   1.0mph /  1.6km/h 77% 0.00in /  0mm 0.0 W/m2
02:07 66.9 °F /  19.4 °C 59.9 °F /  15.5 °C 29.67in /  1004.6hPa Calm   3.0mph /  4.8km/h 78% 0.00in /  0mm 0.0 W/m2
02:13 67.1 °F /  19.5 °C 60.1 °F /  15.6 °C 29.67in /  1004.6hPa East 2.0mph /  3.2km/h 2.0mph /  3.2km/h 78% 0.00in /  0mm 0.0 W/m2
02:19 67.1 °F /  19.5 °C 60.1 °F /  15.6 °C 29.67in /  1004.6hPa Calm     78% 0.00in /  0mm 0.0 W/m2
02:26 67.1 °F /  19.5 °C 60.4 °F /  15.8 °C 29.67in /  1004.6hPa Calm   3.0mph /  4.8km/h 79% 0.00in /  0mm 0.0 W/m2
02:32 67.1 °F /  19.5 °C 60.4 °F /  15.8 °C 29.67in /  1004.6hPa Calm   2.0mph /  3.2km/h 79% 0.00in /  0mm 0.0 W/m2
02:38 67.1 °F /  19.5 °C 60.1 °F /  15.6 °C 29.67in /  1004.6hPa Calm   1.0mph /  1.6km/h 78% 0.00in /  0mm 0.0 W/m2
02:44 66.9 °F /  19.4 °C 59.9 °F /  15.5 °C 29.67in /  1004.6hPa Calm     78% 0.00in /  0mm 0.0 W/m2
02:50 66.9 °F /  19.4 °C 59.9 °F /  15.5 °C 29.67in /  1004.6hPa Calm     78% 0.00in /  0mm 0.0 W/m2
02:56 66.7 °F /  19.3 °C 59.0 °F /  15 °C 29.67in /  1004.6hPa East 0.9mph /  1.4km/h 2.0mph /  3.2km/h 76% 0.00in /  0mm 0.0 W/m2
03:02 66.7 °F /  19.3 °C 58.1 °F /  14.5 °C 29.67in /  1004.6hPa Calm   1.0mph /  1.6km/h 74% 0.00in /  0mm 0.0 W/m2
03:09 66.7 °F /  19.3 °C 58.1 °F /  14.5 °C 29.67in /  1004.6hPa Calm   1.0mph /  1.6km/h 74% 0.00in /  0mm 0.0 W/m2
03:15 66.6 °F /  19.2 °C 58.1 °F /  14.5 °C 29.67in /  1004.6hPa Calm   1.0mph /  1.6km/h 74% 0.00in /  0mm 0.0 W/m2
03:21 66.7 °F /  19.3 °C 58.1 °F /  14.5 °C 29.66in /  1004.3hPa Calm   2.0mph /  3.2km/h 74% 0.00in /  0mm 0.0 W/m2
03:27 66.7 °F /  19.3 °C 59.0 °F /  15 °C 29.67in /  1004.6hPa Calm     76% 0.00in /  0mm 0.0 W/m2
03:33 66.6 °F /  19.2 °C 57.6 °F /  14.2 °C 29.66in /  1004.3hPa Calm   1.0mph /  1.6km/h 73% 0.00in /  0mm 0.0 W/m2
03:39 66.6 °F /  19.2 °C 58.1 °F /  14.5 °C 29.66in /  1004.3hPa Calm     74% 0.00in /  0mm 0.0 W/m2
03:45 66.4 °F /  19.1 °C 57.4 °F /  14.1 °C 29.66in /  1004.3hPa Calm   1.0mph /  1.6km/h 73% 0.00in /  0mm 0.0 W/m2
03:51 66.4 °F /  19.1 °C 57.0 °F /  13.9 °C 29.66in /  1004.3hPa Calm     72% 0.00in /  0mm 0.0 W/m2
03:58 66.0 °F /  18.9 °C 55.6 °F /  13.1 °C 29.66in /  1004.3hPa Calm   1.0mph /  1.6km/h 69% 0.00in /  0mm 0.0 W/m2
04:04 66.0 °F /  18.9 °C 55.9 °F /  13.3 °C 29.66in /  1004.3hPa East 0.9mph /  1.4km/h 1.0mph /  1.6km/h 70% 0.00in /  0mm 0.0 W/m2
04:10 66.0 °F /  18.9 °C 55.6 °F /  13.1 °C 29.66in /  1004.3hPa Calm   1.0mph /  1.6km/h 69% 0.00in /  0mm 0.0 W/m2
04:16 66.0 °F /  18.9 °C 55.6 °F /  13.1 °C 29.66in /  1004.3hPa Calm     69% 0.00in /  0mm 0.0 W/m2
04:22 66.2 °F /  19 °C 56.1 °F /  13.4 °C 29.67in /  1004.6hPa Calm     70% 0.00in /  0mm 0.0 W/m2
04:28 66.2 °F /  19 °C 55.8 °F /  13.2 °C 29.67in /  1004.6hPa Calm   1.0mph /  1.6km/h 69% 0.00in /  0mm 0.0 W/m2
04:34 66.4 °F /  19.1 °C 55.9 °F /  13.3 °C 29.67in /  1004.6hPa Calm     69% 0.00in /  0mm 0.0 W/m2
04:40 66.4 °F /  19.1 °C 54.3 °F /  12.4 °C 29.67in /  1004.6hPa Calm   1.0mph /  1.6km/h 65% 0.00in /  0mm 0.0 W/m2
04:47 66.6 °F /  19.2 °C 54.0 °F /  12.2 °C 29.67in /  1004.6hPa Calm     64% 0.00in /  0mm 0.0 W/m2
04:53 66.6 °F /  19.2 °C 54.5 °F /  12.5 °C 29.67in /  1004.6hPa Calm     65% 0.00in /  0mm 0.0 W/m2
04:59 66.6 °F /  19.2 °C 54.5 °F /  12.5 °C 29.67in /  1004.6hPa Calm     65% 0.00in /  0mm 0.0 W/m2
05:05 66.7 °F /  19.3 °C 55.4 °F /  13 °C 29.67in /  1004.6hPa Calm     67% 0.00in /  0mm 0.0 W/m2
05:11 66.7 °F /  19.3 °C 55.0 °F /  12.8 °C 29.67in /  1004.6hPa Calm   2.0mph /  3.2km/h 66% 0.00in /  0mm 0.0 W/m2
05:17 66.7 °F /  19.3 °C 55.8 °F /  13.2 °C 29.67in /  1004.6hPa Calm   1.0mph /  1.6km/h 68% 0.00in /  0mm 0.0 W/m2
05:23 66.7 °F /  19.3 °C 55.8 °F /  13.2 °C 29.68in /  1005hPa Calm   1.0mph /  1.6km/h 68% 0.00in /  0mm 0.0 W/m2
05:30 66.7 °F /  19.3 °C 55.4 °F /  13 °C 29.67in /  1004.6hPa Calm     67% 0.00in /  0mm 0.0 W/m2
05:36 66.7 °F /  19.3 °C 55.0 °F /  12.8 °C 29.67in /  1004.6hPa Calm   1.0mph /  1.6km/h 66% 0.00in /  0mm 0.0 W/m2
05:42 66.7 °F /  19.3 °C 54.1 °F /  12.3 °C 29.68in /  1005hPa Calm   2.0mph /  3.2km/h 64% 0.00in /  0mm 0.0 W/m2
05:48 66.9 °F /  19.4 °C 56.5 °F /  13.6 °C 29.67in /  1004.6hPa Calm     69% 0.00in /  0mm 0.0 W/m2
05:54 66.7 °F /  19.3 °C 55.0 °F /  12.8 °C 29.68in /  1005hPa Calm     66% 0.00in /  0mm 0.0 W/m2
06:00 66.7 °F /  19.3 °C 54.7 °F /  12.6 °C 29.68in /  1005hPa Calm     65% 0.00in /  0mm 0.0 W/m2
06:06 66.6 °F /  19.2 °C 54.9 °F /  12.7 °C 29.68in /  1005hPa Calm     66% 0.00in /  0mm 0.0 W/m2
06:12 66.6 °F /  19.2 °C 54.0 °F /  12.2 °C 29.68in /  1005hPa Calm     64% 0.00in /  0mm 0.0 W/m2
06:19 66.2 °F /  19 °C 54.1 °F /  12.3 °C 29.68in /  1005hPa Calm   1.0mph /  1.6km/h 65% 0.00in /  0mm 0.0 W/m2
06:25 65.8 °F /  18.8 °C 54.1 °F /  12.3 °C 29.68in /  1005hPa Calm     66% 0.00in /  0mm 0.0 W/m2
06:31 65.7 °F /  18.7 °C 54.0 °F /  12.2 °C 29.68in /  1005hPa Calm   1.0mph /  1.6km/h 66% 0.00in /  0mm 0.0 W/m2
06:37 65.5 °F /  18.6 °C 54.3 °F /  12.4 °C 29.68in /  1005hPa Calm   2.0mph /  3.2km/h 67% 0.00in /  0mm 0.0 W/m2
06:43 65.1 °F /  18.4 °C 54.0 °F /  12.2 °C 29.68in /  1005hPa Calm   2.0mph /  3.2km/h 67% 0.00in /  0mm 5.0 W/m2
06:49 64.9 °F /  18.3 °C 53.8 °F /  12.1 °C 29.69in /  1005.3hPa Calm   2.0mph /  3.2km/h 67% 0.00in /  0mm 9.0 W/m2
06:55 64.8 °F /  18.2 °C 52.7 °F /  11.5 °C 29.69in /  1005.3hPa Calm   4.0mph /  6.4km/h 65% 0.00in /  0mm 11.0 W/m2
07:01 64.8 °F /  18.2 °C 52.7 °F /  11.5 °C 29.70in /  1005.6hPa Calm   3.0mph /  4.8km/h 65% 0.00in /  0mm 12.0 W/m2
07:08 64.8 °F /  18.2 °C 52.7 °F /  11.5 °C 29.70in /  1005.6hPa Calm   3.0mph /  4.8km/h 65% 0.00in /  0mm 14.0 W/m2
07:14 64.6 °F /  18.1 °C 52.9 °F /  11.6 °C 29.70in /  1005.6hPa ENE 0.9mph /  1.4km/h 1.0mph /  1.6km/h 66% 0.00in /  0mm 16.0 W/m2
07:20 64.6 °F /  18.1 °C 52.9 °F /  11.6 °C 29.70in /  1005.6hPa Calm   1.0mph /  1.6km/h 66% 0.00in /  0mm 21.0 W/m2
07:26 64.6 °F /  18.1 °C 52.9 °F /  11.6 °C 29.70in /  1005.6hPa Calm   1.0mph /  1.6km/h 66% 0.00in /  0mm 30.0 W/m2
07:32 64.6 °F /  18.1 °C 52.9 °F /  11.6 °C 29.71in /  1006hPa Calm   3.0mph /  4.8km/h 66% 0.00in /  0mm 40.0 W/m2
07:38 64.6 °F /  18.1 °C 52.9 °F /  11.6 °C 29.71in /  1006hPa Calm     66% 0.00in /  0mm 56.0 W/m2
07:44 64.8 °F /  18.2 °C 52.7 °F /  11.5 °C 29.71in /  1006hPa Calm   1.0mph /  1.6km/h 65% 0.00in /  0mm 72.0 W/m2
07:51 64.9 °F /  18.3 °C 52.9 °F /  11.6 °C 29.71in /  1006hPa SSE 2.9mph /  4.7km/h 3.0mph /  4.8km/h 65% 0.00in /  0mm 77.0 W/m2
07:57 65.1 °F /  18.4 °C 53.1 °F /  11.7 °C 29.71in /  1006hPa Calm   1.0mph /  1.6km/h 65% 0.00in /  0mm 88.0 W/m2
08:03 65.5 °F /  18.6 °C 53.8 °F /  12.1 °C 29.71in /  1006hPa Calm   1.0mph /  1.6km/h 66% 0.00in /  0mm 100.0 W/m2
08:09 65.8 °F /  18.8 °C 53.2 °F /  11.8 °C 29.71in /  1006hPa Calm     64% 0.00in /  0mm 114.0 W/m2
08:15 66.0 °F /  18.9 °C 53.4 °F /  11.9 °C 29.72in /  1006.3hPa Calm   2.0mph /  3.2km/h 64% 0.00in /  0mm 128.0 W/m2
08:21 66.6 °F /  19.2 °C 53.1 °F /  11.7 °C 29.72in /  1006.3hPa Calm   1.0mph /  1.6km/h 62% 0.00in /  0mm 142.0 W/m2
08:27 66.9 °F /  19.4 °C 53.1 °F /  11.7 °C 29.72in /  1006.3hPa Calm   1.0mph /  1.6km/h 61% 0.00in /  0mm 155.0 W/m2
08:33 67.5 °F /  19.7 °C 52.7 °F /  11.5 °C 29.72in /  1006.3hPa Calm   2.0mph /  3.2km/h 59% 0.00in /  0mm 171.0 W/m2
08:40 68.2 °F /  20.1 °C 52.9 °F /  11.6 °C 29.72in /  1006.3hPa Calm   2.0mph /  3.2km/h 58% 0.00in /  0mm 192.0 W/m2
08:46 68.7 °F /  20.4 °C 52.9 °F /  11.6 °C 29.72in /  1006.3hPa Calm     57% 0.00in /  0mm 213.0 W/m2
08:52 69.3 °F /  20.7 °C 53.4 °F /  11.9 °C 29.72in /  1006.3hPa Calm   1.0mph /  1.6km/h 57% 0.00in /  0mm 229.0 W/m2
08:58 69.8 °F /  21 °C 53.4 °F /  11.9 °C 29.72in /  1006.3hPa Calm   2.0mph /  3.2km/h 56% 0.00in /  0mm 241.0 W/m2
09:04 70.3 °F /  21.3 °C 54.3 °F /  12.4 °C 29.72in /  1006.3hPa NE 0.9mph /  1.4km/h 1.0mph /  1.6km/h 57% 0.00in /  0mm 271.0 W/m2
09:10 71.1 °F /  21.7 °C 53.6 °F /  12 °C 29.72in /  1006.3hPa SE 0.9mph /  1.4km/h 2.0mph /  3.2km/h 54% 0.00in /  0mm 299.0 W/m2
09:16 71.8 °F /  22.1 °C 53.8 °F /  12.1 °C 29.73in /  1006.7hPa Calm   2.0mph /  3.2km/h 53% 0.00in /  0mm 369.0 W/m2
09:22 72.5 °F /  22.5 °C 52.3 °F /  11.3 °C 29.72in /  1006.3hPa NNE 0.9mph /  1.4km/h 4.0mph /  6.4km/h 49% 0.00in /  0mm 396.0 W/m2
09:28 73.4 °F /  23 °C 52.0 °F /  11.1 °C 29.72in /  1006.3hPa NNE 0.9mph /  1.4km/h 2.0mph /  3.2km/h 47% 0.00in /  0mm 432.0 W/m2
09:35 74.5 °F /  23.6 °C 51.1 °F /  10.6 °C 29.73in /  1006.7hPa East 2.0mph /  3.2km/h 2.0mph /  3.2km/h 44% 0.00in /  0mm 559.0 W/m2
09:41 75.6 °F /  24.2 °C 50.9 °F /  10.5 °C 29.73in /  1006.7hPa Calm   2.0mph /  3.2km/h 42% 0.00in /  0mm 373.0 W/m2
09:47 76.5 °F /  24.7 °C 48.9 °F /  9.4 °C 29.73in /  1006.7hPa East 2.0mph /  3.2km/h 4.0mph /  6.4km/h 38% 0.00in /  0mm 522.0 W/m2
09:53 76.8 °F /  24.9 °C 48.6 °F /  9.2 °C 29.72in /  1006.3hPa Calm   1.0mph /  1.6km/h 37% 0.00in /  0mm 459.0 W/m2
09:59 77.0 °F /  25 °C 46.4 °F /  8 °C 29.73in /  1006.7hPa Calm   1.0mph /  1.6km/h 34% 0.00in /  0mm 666.0 W/m2
10:05 77.2 °F /  25.1 °C 45.9 °F /  7.7 °C 29.72in /  1006.3hPa Calm   3.0mph /  4.8km/h 33% 0.00in /  0mm 896.0 W/m2
10:11 77.5 °F /  25.3 °C 46.9 °F /  8.3 °C 29.73in /  1006.7hPa Calm   3.0mph /  4.8km/h 34% 0.00in /  0mm 1000.0 W/m2
10:17 78.8 °F /  26 °C 47.3 °F /  8.5 °C 29.72in /  1006.3hPa NNE 2.0mph /  3.2km/h 4.0mph /  6.4km/h 33% 0.00in /  0mm 858.0 W/m2
10:24 79.9 °F /  26.6 °C 47.3 °F /  8.5 °C 29.73in /  1006.7hPa NNE 2.0mph /  3.2km/h 6.0mph /  9.7km/h 32% 0.00in /  0mm 515.0 W/m2
10:30 79.9 °F /  26.6 °C 46.6 °F /  8.1 °C 29.73in /  1006.7hPa NNW 2.0mph /  3.2km/h 2.0mph /  3.2km/h 31% 0.00in /  0mm 714.0 W/m2
10:36 80.4 °F /  26.9 °C 46.9 °F /  8.3 °C 29.73in /  1006.7hPa East 0.9mph /  1.4km/h 2.0mph /  3.2km/h 31% 0.00in /  0mm 686.0 W/m2
10:42 81.0 °F /  27.2 °C 47.5 °F /  8.6 °C 29.73in /  1006.7hPa Calm   3.0mph /  4.8km/h 31% 0.00in /  0mm 517.0 W/m2
10:48 81.3 °F /  27.4 °C 46.9 °F /  8.3 °C 29.73in /  1006.7hPa Calm   5.0mph /  8km/h 30% 0.00in /  0mm 522.0 W/m2
10:54 81.1 °F /  27.3 °C 46.8 °F /  8.2 °C 29.73in /  1006.7hPa SSE 0.9mph /  1.4km/h 2.0mph /  3.2km/h 30% 0.00in /  0mm 838.0 W/m2
11:00 81.3 °F /  27.4 °C 47.8 °F /  8.8 °C 29.73in /  1006.7hPa ENE 2.0mph /  3.2km/h 4.0mph /  6.4km/h 31% 0.00in /  0mm 838.0 W/m2
11:06 82.0 °F /  27.8 °C 47.5 °F /  8.6 °C 29.73in /  1006.7hPa Calm   5.0mph /  8km/h 30% 0.00in /  0mm 946.0 W/m2
11:12 82.8 °F /  28.2 °C 47.3 °F /  8.5 °C 29.72in /  1006.3hPa ESE 0.9mph /  1.4km/h 3.0mph /  4.8km/h 29% 0.00in /  0mm 930.0 W/m2
11:19 83.5 °F /  28.6 °C 47.8 °F /  8.8 °C 29.73in /  1006.7hPa South 2.0mph /  3.2km/h 3.0mph /  4.8km/h 29% 0.00in /  0mm 944.0 W/m2
11:25 83.8 °F /  28.8 °C 48.2 °F /  9 °C 29.72in /  1006.3hPa Calm   6.0mph /  9.7km/h 29% 0.00in /  0mm 951.0 W/m2
11:31 84.6 °F /  29.2 °C 48.7 °F /  9.3 °C 29.72in /  1006.3hPa ESE 2.9mph /  4.7km/h 6.0mph /  9.7km/h 29% 0.00in /  0mm 951.0 W/m2
11:37 84.9 °F /  29.4 °C 50.0 °F /  10 °C 29.72in /  1006.3hPa West 0.9mph /  1.4km/h 3.0mph /  4.8km/h 30% 0.00in /  0mm 990.0 W/m2
11:43 84.9 °F /  29.4 °C 50.0 °F /  10 °C 29.72in /  1006.3hPa ENE 8.1mph /  13km/h 8.1mph /  13km/h 30% 0.00in /  0mm 1071.0 W/m2
11:50 85.5 °F /  29.7 °C 49.6 °F /  9.8 °C 29.72in /  1006.3hPa NE 4.9mph /  7.9km/h 7.0mph /  11.3km/h 29% 0.00in /  0mm 1151.0 W/m2
11:56 86.2 °F /  30.1 °C 50.2 °F /  10.1 °C 29.72in /  1006.3hPa North 6.0mph /  9.7km/h 6.0mph /  9.7km/h 29% 0.00in /  0mm 1195.0 W/m2
12:02 86.2 °F /  30.1 °C 50.2 °F /  10.1 °C 29.72in /  1006.3hPa North 4.0mph /  6.4km/h 4.0mph /  6.4km/h 29% 0.00in /  0mm 475.0 W/m2
12:08 85.8 °F /  29.9 °C 50.7 °F /  10.4 °C 29.72in /  1006.3hPa Calm   5.0mph /  8km/h 30% 0.00in /  0mm 628.0 W/m2
12:14 85.5 °F /  29.7 °C 50.5 °F /  10.3 °C 29.72in /  1006.3hPa NNE 4.0mph /  6.4km/h 10.0mph /  16.1km/h 30% 0.00in /  0mm 380.0 W/m2
12:20 84.6 °F /  29.2 °C 51.4 °F /  10.8 °C 29.72in /  1006.3hPa North 0.9mph /  1.4km/h 5.0mph /  8km/h 32% 0.00in /  0mm 399.0 W/m2
12:26 84.6 °F /  29.2 °C 50.5 °F /  10.3 °C 29.72in /  1006.3hPa NNW 2.0mph /  3.2km/h 4.0mph /  6.4km/h 31% 0.00in /  0mm 861.0 W/m2
12:32 84.7 °F /  29.3 °C 52.5 °F /  11.4 °C 29.71in /  1006hPa Calm   3.0mph /  4.8km/h 33% 0.00in /  0mm 861.0 W/m2
12:38 85.5 °F /  29.7 °C 53.1 °F /  11.7 °C 29.71in /  1006hPa Calm   3.0mph /  4.8km/h 33% 0.00in /  0mm 930.0 W/m2
12:44 86.0 °F /  30 °C 52.7 °F /  11.5 °C 29.71in /  1006hPa Calm   2.0mph /  3.2km/h 32% 0.00in /  0mm 601.0 W/m2
12:51 86.4 °F /  30.2 °C 52.2 °F /  11.2 °C 29.71in /  1006hPa Calm   3.0mph /  4.8km/h 31% 0.00in /  0mm 548.0 W/m2
12:57 86.4 °F /  30.2 °C 53.1 °F /  11.7 °C 29.71in /  1006hPa WSW 2.0mph /  3.2km/h 2.0mph /  3.2km/h 32% 0.00in /  0mm 803.0 W/m2
13:03 86.0 °F /  30 °C 55.9 °F /  13.3 °C 29.71in /  1006hPa NW 2.9mph /  4.7km/h 7.0mph /  11.3km/h 36% 0.00in /  0mm 538.0 W/m2
13:09 85.5 °F /  29.7 °C 55.4 °F /  13 °C 29.70in /  1005.6hPa NE 8.1mph /  13km/h 8.1mph /  13km/h 36% 0.00in /  0mm 671.0 W/m2
13:15 84.9 °F /  29.4 °C 55.0 °F /  12.8 °C 29.71in /  1006hPa NW 2.0mph /  3.2km/h 7.0mph /  11.3km/h 36% 0.00in /  0mm 652.0 W/m2
13:21 84.6 °F /  29.2 °C 55.4 °F /  13 °C 29.70in /  1005.6hPa NNW 4.0mph /  6.4km/h 4.0mph /  6.4km/h 37% 0.00in /  0mm 707.0 W/m2
13:28 84.4 °F /  29.1 °C 54.5 °F /  12.5 °C 29.70in /  1005.6hPa North 6.9mph /  11.1km/h 7.0mph /  11.3km/h 36% 0.00in /  0mm 649.0 W/m2
13:34 83.8 °F /  28.8 °C 54.9 °F /  12.7 °C 29.70in /  1005.6hPa NE 2.0mph /  3.2km/h 5.0mph /  8km/h 37% 0.00in /  0mm 591.0 W/m2
13:40 83.5 °F /  28.6 °C 54.5 °F /  12.5 °C 29.70in /  1005.6hPa NNE 2.0mph /  3.2km/h 8.0mph /  12.9km/h 37% 0.00in /  0mm 654.0 W/m2
13:46 83.5 °F /  28.6 °C 55.2 °F /  12.9 °C 29.70in /  1005.6hPa ENE 0.9mph /  1.4km/h 4.0mph /  6.4km/h 38% 0.00in /  0mm 526.0 W/m2
13:52 83.5 °F /  28.6 °C 55.2 °F /  12.9 °C 29.70in /  1005.6hPa NNE 2.0mph /  3.2km/h 5.0mph /  8km/h 38% 0.00in /  0mm 436.0 W/m2
13:58 83.5 °F /  28.6 °C 54.5 °F /  12.5 °C 29.70in /  1005.6hPa NNE 4.0mph /  6.4km/h 4.0mph /  6.4km/h 37% 0.00in /  0mm 429.0 W/m2
14:04 83.5 °F /  28.6 °C 56.7 °F /  13.7 °C 29.69in /  1005.3hPa NNW 6.9mph /  11.1km/h 7.0mph /  11.3km/h 40% 0.00in /  0mm 396.0 W/m2
14:11 82.9 °F /  28.3 °C 56.1 °F /  13.4 °C 29.69in /  1005.3hPa WSW 2.0mph /  3.2km/h 6.0mph /  9.7km/h 40% 0.00in /  0mm 410.0 W/m2
14:16 82.8 °F /  28.2 °C 55.9 °F /  13.3 °C 29.69in /  1005.3hPa NNE 4.9mph /  7.9km/h 12.0mph /  19.3km/h 40% 0.00in /  0mm 422.0 W/m2
14:23 82.6 °F /  28.1 °C 56.5 °F /  13.6 °C 29.68in /  1005hPa Calm   7.0mph /  11.3km/h 41% 0.00in /  0mm 431.0 W/m2
14:29 82.4 °F /  28 °C 55.0 °F /  12.8 °C 29.68in /  1005hPa NW 2.9mph /  4.7km/h 6.0mph /  9.7km/h 39% 0.00in /  0mm 418.0 W/m2
14:35 82.2 °F /  27.9 °C 54.9 °F /  12.7 °C 29.68in /  1005hPa NNE 2.0mph /  3.2km/h 5.0mph /  8km/h 39% 0.00in /  0mm 434.0 W/m2
14:41 82.2 °F /  27.9 °C 55.6 °F /  13.1 °C 29.68in /  1005hPa NE 0.9mph /  1.4km/h 5.0mph /  8km/h 40% 0.00in /  0mm 439.0 W/m2
14:47 82.0 °F /  27.8 °C 55.4 °F /  13 °C 29.67in /  1004.6hPa North 2.9mph /  4.7km/h 4.0mph /  6.4km/h 40% 0.00in /  0mm 439.0 W/m2
14:53 82.2 °F /  27.9 °C 56.1 °F /  13.4 °C 29.67in /  1004.6hPa NNE 2.9mph /  4.7km/h 4.0mph /  6.4km/h 41% 0.00in /  0mm 425.0 W/m2
14:59 82.4 °F /  28 °C 55.6 °F /  13.1 °C 29.67in /  1004.6hPa NNW 0.9mph /  1.4km/h 6.0mph /  9.7km/h 40% 0.00in /  0mm 374.0 W/m2
15:06 82.2 °F /  27.9 °C 55.6 °F /  13.1 °C 29.67in /  1004.6hPa Calm   4.0mph /  6.4km/h 40% 0.00in /  0mm 367.0 W/m2
15:12 82.0 °F /  27.8 °C 56.7 °F /  13.7 °C 29.67in /  1004.6hPa Calm   2.0mph /  3.2km/h 42% 0.00in /  0mm 366.0 W/m2
15:18 82.0 °F /  27.8 °C 55.4 °F /  13 °C 29.66in /  1004.3hPa NNE 4.0mph /  6.4km/h 5.0mph /  8km/h 40% 0.00in /  0mm 366.0 W/m2
15:24 81.9 °F /  27.7 °C 55.9 °F /  13.3 °C 29.66in /  1004.3hPa North 4.0mph /  6.4km/h 7.0mph /  11.3km/h 41% 0.00in /  0mm 380.0 W/m2
15:30 81.5 °F /  27.5 °C 56.1 °F /  13.4 °C 29.65in /  1003.9hPa NNE 4.0mph /  6.4km/h 4.0mph /  6.4km/h 42% 0.00in /  0mm 385.0 W/m2
15:36 81.7 °F /  27.6 °C 56.3 °F /  13.5 °C 29.65in /  1003.9hPa NNE 4.0mph /  6.4km/h 7.0mph /  11.3km/h 42% 0.00in /  0mm 359.0 W/m2
15:42 81.3 °F /  27.4 °C 56.7 °F /  13.7 °C 29.64in /  1003.6hPa North 4.0mph /  6.4km/h 6.0mph /  9.7km/h 43% 0.00in /  0mm 338.0 W/m2
15:48 81.0 °F /  27.2 °C 56.3 °F /  13.5 °C 29.64in /  1003.6hPa NNE 2.9mph /  4.7km/h 6.0mph /  9.7km/h 43% 0.00in /  0mm 325.0 W/m2
15:55 81.0 °F /  27.2 °C 57.0 °F /  13.9 °C 29.64in /  1003.6hPa NNW 6.0mph /  9.7km/h 6.0mph /  9.7km/h 44% 0.00in /  0mm 316.0 W/m2
16:01 80.8 °F /  27.1 °C 56.8 °F /  13.8 °C 29.63in /  1003.3hPa NNW 4.0mph /  6.4km/h 8.0mph /  12.9km/h 44% 0.00in /  0mm 322.0 W/m2
16:07 80.4 °F /  26.9 °C 57.2 °F /  14 °C 29.64in /  1003.6hPa NNE 4.0mph /  6.4km/h 11.0mph /  17.7km/h 45% 0.00in /  0mm 311.0 W/m2
16:13 80.1 °F /  26.7 °C 57.4 °F /  14.1 °C 29.64in /  1003.6hPa NNE 2.9mph /  4.7km/h 7.0mph /  11.3km/h 46% 0.00in /  0mm 301.0 W/m2
16:19 79.9 °F /  26.6 °C 57.2 °F /  14 °C 29.64in /  1003.6hPa NE 2.9mph /  4.7km/h 5.0mph /  8km/h 46% 0.00in /  0mm 295.0 W/m2
16:25 79.9 °F /  26.6 °C 57.2 °F /  14 °C 29.65in /  1003.9hPa NNE 4.0mph /  6.4km/h 7.0mph /  11.3km/h 46% 0.00in /  0mm 294.0 W/m2
16:31 79.9 °F /  26.6 °C 57.2 °F /  14 °C 29.65in /  1003.9hPa NNW 2.0mph /  3.2km/h 5.0mph /  8km/h 46% 0.00in /  0mm 287.0 W/m2
16:38 79.9 °F /  26.6 °C 57.9 °F /  14.4 °C 29.65in /  1003.9hPa NNW 2.0mph /  3.2km/h 5.0mph /  8km/h 47% 0.00in /  0mm 274.0 W/m2
16:44 79.7 °F /  26.5 °C 57.7 °F /  14.3 °C 29.65in /  1003.9hPa North 2.9mph /  4.7km/h 8.0mph /  12.9km/h 47% 0.00in /  0mm 264.0 W/m2
16:50 79.5 °F /  26.4 °C 57.6 °F /  14.2 °C 29.65in /  1003.9hPa NNW 2.0mph /  3.2km/h 5.0mph /  8km/h 47% 0.00in /  0mm 255.0 W/m2
17:02 79.7 °F /  26.5 °C 57.7 °F /  14.3 °C 29.65in /  1003.9hPa Calm   4.0mph /  6.4km/h 47% 0.00in /  0mm 271.0 W/m2
17:08 80.1 °F /  26.7 °C 59.2 °F /  15.1 °C 29.65in /  1003.9hPa North 2.0mph /  3.2km/h 3.0mph /  4.8km/h 49% 0.00in /  0mm 306.0 W/m2
17:14 80.4 °F /  26.9 °C 59.5 °F /  15.3 °C 29.65in /  1003.9hPa Calm   4.0mph /  6.4km/h 49% 0.00in /  0mm 346.0 W/m2
17:20 80.8 °F /  27.1 °C 59.2 °F /  15.1 °C 29.65in /  1003.9hPa NNW 0.9mph /  1.4km/h 5.0mph /  8km/h 48% 0.00in /  0mm 302.0 W/m2
17:26 80.8 °F /  27.1 °C 58.6 °F /  14.8 °C 29.65in /  1003.9hPa Calm   3.0mph /  4.8km/h 47% 0.00in /  0mm 246.0 W/m2
17:32 80.8 °F /  27.1 °C 59.2 °F /  15.1 °C 29.65in /  1003.9hPa WSW 2.0mph /  3.2km/h 2.0mph /  3.2km/h 48% 0.00in /  0mm 193.0 W/m2
17:38 80.4 °F /  26.9 °C 59.0 °F /  15 °C 29.65in /  1003.9hPa NNW 0.9mph /  1.4km/h 3.0mph /  4.8km/h 48% 0.00in /  0mm 193.0 W/m2
17:44 80.1 °F /  26.7 °C 58.6 °F /  14.8 °C 29.65in /  1003.9hPa Calm   4.0mph /  6.4km/h 48% 0.00in /  0mm 178.0 W/m2
17:50 79.9 °F /  26.6 °C 59.0 °F /  15 °C 29.65in /  1003.9hPa Calm   2.0mph /  3.2km/h 49% 0.00in /  0mm 163.0 W/m2
17:56 79.5 °F /  26.4 °C 58.6 °F /  14.8 °C 29.65in /  1003.9hPa Calm   1.0mph /  1.6km/h 49% 0.00in /  0mm 130.0 W/m2
18:02 79.3 °F /  26.3 °C 58.5 °F /  14.7 °C 29.66in /  1004.3hPa Calm   3.0mph /  4.8km/h 49% 0.00in /  0mm 114.0 W/m2
18:08 79.2 °F /  26.2 °C 58.3 °F /  14.6 °C 29.66in /  1004.3hPa Calm   4.0mph /  6.4km/h 49% 0.00in /  0mm 114.0 W/m2
18:14 78.8 °F /  26 °C 59.2 °F /  15.1 °C 29.67in /  1004.6hPa Calm   7.0mph /  11.3km/h 51% 0.00in /  0mm 102.0 W/m2
18:20 78.4 °F /  25.8 °C 59.4 °F /  15.2 °C 29.67in /  1004.6hPa WNW 2.0mph /  3.2km/h 6.0mph /  9.7km/h 52% 0.00in /  0mm 84.0 W/m2
18:26 78.1 °F /  25.6 °C 59.5 °F /  15.3 °C 29.67in /  1004.6hPa North 0.9mph /  1.4km/h 7.0mph /  11.3km/h 53% 0.00in /  0mm 77.0 W/m2
18:32 77.5 °F /  25.3 °C 59.0 °F /  15 °C 29.68in /  1005hPa Calm   1.0mph /  1.6km/h 53% 0.00in /  0mm 72.0 W/m2
18:38 77.2 °F /  25.1 °C 58.6 °F /  14.8 °C 29.68in /  1005hPa WNW 2.9mph /  4.7km/h 3.0mph /  4.8km/h 53% 0.00in /  0mm 62.0 W/m2
18:45 76.8 °F /  24.9 °C 58.5 °F /  14.7 °C 29.69in /  1005.3hPa Calm   5.0mph /  8km/h 53% 0.00in /  0mm 47.0 W/m2
18:51 76.5 °F /  24.7 °C 58.1 °F /  14.5 °C 29.70in /  1005.6hPa Calm   5.0mph /  8km/h 53% 0.00in /  0mm 42.0 W/m2
18:57 76.3 °F /  24.6 °C 57.9 °F /  14.4 °C 29.70in /  1005.6hPa Calm   4.0mph /  6.4km/h 53% 0.00in /  0mm 37.0 W/m2
19:03 75.9 °F /  24.4 °C 56.5 °F /  13.6 °C 29.70in /  1005.6hPa NW 2.9mph /  4.7km/h 5.0mph /  8km/h 51% 0.00in /  0mm 28.0 W/m2
19:09 75.7 °F /  24.3 °C 56.8 °F /  13.8 °C 29.70in /  1005.6hPa Calm   4.0mph /  6.4km/h 52% 0.00in /  0mm 19.0 W/m2
19:15 75.7 °F /  24.3 °C 57.4 °F /  14.1 °C 29.70in /  1005.6hPa Calm   3.0mph /  4.8km/h 53% 0.00in /  0mm 11.0 W/m2
19:21 75.6 °F /  24.2 °C 57.2 °F /  14 °C 29.70in /  1005.6hPa NNE 2.0mph /  3.2km/h 2.0mph /  3.2km/h 53% 0.00in /  0mm 7.0 W/m2
19:27 75.6 °F /  24.2 °C 57.7 °F /  14.3 °C 29.71in /  1006hPa Calm     54% 0.00in /  0mm 0.0 W/m2
19:33 75.4 °F /  24.1 °C 58.6 °F /  14.8 °C 29.71in /  1006hPa NNE 4.0mph /  6.4km/h 5.0mph /  8km/h 56% 0.00in /  0mm 0.0 W/m2
19:39 75.0 °F /  23.9 °C 59.2 °F /  15.1 °C 29.72in /  1006.3hPa Calm   4.0mph /  6.4km/h 58% 0.00in /  0mm 0.0 W/m2
19:45 74.7 °F /  23.7 °C 59.4 °F /  15.2 °C 29.72in /  1006.3hPa North 2.0mph /  3.2km/h 4.0mph /  6.4km/h 59% 0.00in /  0mm 0.0 W/m2
19:51 74.1 °F /  23.4 °C 59.4 °F /  15.2 °C 29.72in /  1006.3hPa Calm   2.0mph /  3.2km/h 60% 0.00in /  0mm 0.0 W/m2
19:57 74.1 °F /  23.4 °C 59.7 °F /  15.4 °C 29.72in /  1006.3hPa NNE 2.9mph /  4.7km/h 5.0mph /  8km/h 61% 0.00in /  0mm 0.0 W/m2
20:03 73.8 °F /  23.2 °C 59.5 °F /  15.3 °C 29.72in /  1006.3hPa NE 4.0mph /  6.4km/h 4.0mph /  6.4km/h 61% 0.00in /  0mm 0.0 W/m2
20:09 73.6 °F /  23.1 °C 59.7 °F /  15.4 °C 29.72in /  1006.3hPa Calm   3.0mph /  4.8km/h 62% 0.00in /  0mm 0.0 W/m2
20:15 73.4 °F /  23 °C 59.5 °F /  15.3 °C 29.72in /  1006.3hPa Calm   3.0mph /  4.8km/h 62% 0.00in /  0mm 0.0 W/m2
20:21 73.2 °F /  22.9 °C 59.4 °F /  15.2 °C 29.73in /  1006.7hPa Calm   3.0mph /  4.8km/h 62% 0.00in /  0mm 0.0 W/m2
20:27 73.0 °F /  22.8 °C 59.2 °F /  15.1 °C 29.73in /  1006.7hPa NNE 4.0mph /  6.4km/h 4.0mph /  6.4km/h 62% 0.00in /  0mm 0.0 W/m2
20:33 72.9 °F /  22.7 °C 59.0 °F /  15 °C 29.72in /  1006.3hPa North 4.0mph /  6.4km/h 4.0mph /  6.4km/h 62% 0.00in /  0mm 0.0 W/m2
20:39 72.7 °F /  22.6 °C 59.4 °F /  15.2 °C 29.73in /  1006.7hPa Calm   3.0mph /  4.8km/h 63% 0.00in /  0mm 0.0 W/m2
20:45 72.7 °F /  22.6 °C 59.4 °F /  15.2 °C 29.73in /  1006.7hPa WNW 0.9mph /  1.4km/h 2.0mph /  3.2km/h 63% 0.00in /  0mm 0.0 W/m2
20:51 72.3 °F /  22.4 °C 59.0 °F /  15 °C 29.73in /  1006.7hPa NNE 4.0mph /  6.4km/h 5.0mph /  8km/h 63% 0.00in /  0mm 0.0 W/m2
20:57 72.1 °F /  22.3 °C 58.8 °F /  14.9 °C 29.73in /  1006.7hPa NW 2.0mph /  3.2km/h 8.0mph /  12.9km/h 63% 0.00in /  0mm 0.0 W/m2
21:03 72.0 °F /  22.2 °C 59.2 °F /  15.1 °C 29.74in /  1007hPa NW 2.0mph /  3.2km/h 4.0mph /  6.4km/h 64% 0.00in /  0mm 0.0 W/m2
21:09 71.8 °F /  22.1 °C 59.4 °F /  15.2 °C 29.74in /  1007hPa NNE 2.0mph /  3.2km/h 3.0mph /  4.8km/h 65% 0.00in /  0mm 0.0 W/m2
21:15 71.8 °F /  22.1 °C 59.7 °F /  15.4 °C 29.75in /  1007.3hPa NNE 2.0mph /  3.2km/h 4.0mph /  6.4km/h 66% 0.00in /  0mm 0.0 W/m2
21:21 71.4 °F /  21.9 °C 59.9 °F /  15.5 °C 29.75in /  1007.3hPa North 0.9mph /  1.4km/h 5.0mph /  8km/h 67% 0.00in /  0mm 0.0 W/m2
21:27 71.2 °F /  21.8 °C 60.1 °F /  15.6 °C 29.75in /  1007.3hPa Calm   1.0mph /  1.6km/h 68% 0.00in /  0mm 0.0 W/m2
21:33 71.1 °F /  21.7 °C 60.4 °F /  15.8 °C 29.75in /  1007.3hPa Calm   3.0mph /  4.8km/h 69% 0.00in /  0mm 0.0 W/m2
21:39 71.1 °F /  21.7 °C 60.8 °F /  16 °C 29.75in /  1007.3hPa Calm   1.0mph /  1.6km/h 70% 0.00in /  0mm 0.0 W/m2
21:45 70.9 °F /  21.6 °C 60.6 °F /  15.9 °C 29.75in /  1007.3hPa Calm     70% 0.00in /  0mm 0.0 W/m2
21:51 70.9 °F /  21.6 °C 60.6 °F /  15.9 °C 29.75in /  1007.3hPa NNE 2.0mph /  3.2km/h 2.0mph /  3.2km/h 70% 0.00in /  0mm 0.0 W/m2
21:57 70.9 °F /  21.6 °C 60.6 °F /  15.9 °C 29.75in /  1007.3hPa NNE 0.9mph /  1.4km/h 2.0mph /  3.2km/h 70% 0.00in /  0mm 0.0 W/m2
22:03 70.5 °F /  21.4 °C 60.6 °F /  15.9 °C 29.75in /  1007.3hPa NNE 2.0mph /  3.2km/h 2.0mph /  3.2km/h 71% 0.00in /  0mm 0.0 W/m2
22:09 70.5 °F /  21.4 °C 60.6 °F /  15.9 °C 29.75in /  1007.3hPa NNE 2.9mph /  4.7km/h 3.0mph /  4.8km/h 71% 0.00in /  0mm 0.0 W/m2
22:15 70.5 °F /  21.4 °C 60.6 °F /  15.9 °C 29.75in /  1007.3hPa Calm   3.0mph /  4.8km/h 71% 0.00in /  0mm 0.0 W/m2
22:21 70.3 °F /  21.3 °C 60.8 °F /  16 °C 29.76in /  1007.7hPa Calm   2.0mph /  3.2km/h 72% 0.00in /  0mm 0.0 W/m2
22:27 70.3 °F /  21.3 °C 60.8 °F /  16 °C 29.75in /  1007.3hPa Calm     72% 0.00in /  0mm 0.0 W/m2
22:33 70.2 °F /  21.2 °C 60.6 °F /  15.9 °C 29.76in /  1007.7hPa NNW 0.9mph /  1.4km/h 1.0mph /  1.6km/h 72% 0.00in /  0mm 0.0 W/m2
22:39 70.2 °F /  21.2 °C 60.6 °F /  15.9 °C 29.76in /  1007.7hPa North 0.9mph /  1.4km/h 2.0mph /  3.2km/h 72% 0.00in /  0mm 0.0 W/m2
22:45 70.0 °F /  21.1 °C 60.6 °F /  15.9 °C 29.76in /  1007.7hPa Calm   1.0mph /  1.6km/h 72% 0.00in /  0mm 0.0 W/m2
22:51 70.0 °F /  21.1 °C 60.6 °F /  15.9 °C 29.76in /  1007.7hPa Calm     72% 0.00in /  0mm 0.0 W/m2
22:57 69.8 °F /  21 °C 60.8 °F /  16 °C 29.76in /  1007.7hPa Calm   1.0mph /  1.6km/h 73% 0.00in /  0mm 0.0 W/m2
23:03 69.6 °F /  20.9 °C 60.6 °F /  15.9 °C 29.76in /  1007.7hPa NNE 2.9mph /  4.7km/h 3.0mph /  4.8km/h 73% 0.00in /  0mm 0.0 W/m2
23:09 69.6 °F /  20.9 °C 60.6 °F /  15.9 °C 29.76in /  1007.7hPa NNW 4.9mph /  7.9km/h 7.0mph /  11.3km/h 73% 0.00in /  0mm 0.0 W/m2
23:15 69.4 °F /  20.8 °C 60.8 °F /  16 °C 29.77in /  1008hPa NNW 2.0mph /  3.2km/h 6.0mph /  9.7km/h 74% 0.00in /  0mm 0.0 W/m2
23:21 69.3 °F /  20.7 °C 61.0 °F /  16.1 °C 29.77in /  1008hPa Calm   2.0mph /  3.2km/h 75% 0.00in /  0mm 0.0 W/m2
23:27 69.3 °F /  20.7 °C 61.7 °F /  16.5 °C 29.76in /  1007.7hPa NNW 2.0mph /  3.2km/h 3.0mph /  4.8km/h 77% 0.00in /  0mm 0.0 W/m2
23:34 69.1 °F /  20.6 °C 61.9 °F /  16.6 °C 29.76in /  1007.7hPa Calm   4.0mph /  6.4km/h 78% 0.00in /  0mm 0.0 W/m2
23:40 69.1 °F /  20.6 °C 61.9 °F /  16.6 °C 29.77in /  1008hPa Calm   2.0mph /  3.2km/h 78% 0.00in /  0mm 0.0 W/m2
23:46 68.9 °F /  20.5 °C 61.7 °F /  16.5 °C 29.77in /  1008hPa Calm   2.0mph /  3.2km/h 78% 0.00in /  0mm 0.0 W/m2
23:52 68.7 °F /  20.4 °C 61.9 °F /  16.6 °C 29.76in /  1007.7hPa Calm   4.0mph /  6.4km/h 79% 0.00in /  0mm 0.0 W/m2
23:58 68.7 °F /  20.4 °C 61.9 °F /  16.6 °C 29.76in /  1007.7hPa Calm   3.0mph /  4.8km/h 79% 0.00in /  0mm 0.0 W/m2
Olympia, Windhoek, Namibia
Compliments of Weather Underground - 3 mb